createdAt,value
2023-04-22T00:07:17.419Z,100650.89
2023-04-22T00:22:34.547Z,100637.05
2023-04-22T00:37:37.388Z,100622.98
2023-04-22T00:52:40.733Z,100612.78
2023-04-22T01:07:43.203Z,100615.94
2023-04-22T01:23:09.516Z,100619.98
2023-04-22T01:38:13.188Z,100618.09
2023-04-22T01:53:16.029Z,100619.83
2023-04-22T02:08:33.273Z,100617.61
2023-04-22T02:23:37.937Z,100606.96
2023-04-22T02:38:40.665Z,100601.45
2023-04-22T02:53:43.683Z,100597.30
2023-04-22T03:24:18.368Z,100587.42
2023-04-22T03:39:35.391Z,100582.63
2023-04-22T03:54:38.549Z,100572.68
2023-04-22T04:09:55.757Z,100574.74
2023-04-22T04:24:58.385Z,100571.85
2023-04-22T04:40:15.489Z,100569.56
2023-04-22T04:55:18.102Z,100568.69
2023-04-22T05:10:24.602Z,100574.27
2023-04-22T05:25:41.745Z,100575.29
2023-04-22T05:40:46.444Z,100574.41
2023-04-22T05:55:50.317Z,100581.88
2023-04-22T06:10:53.038Z,100582.08
2023-04-22T06:25:57.858Z,100583.50
2023-04-22T06:41:00.685Z,100582.31
2023-04-22T06:56:04.968Z,100583.45
2023-04-22T07:11:22.243Z,100573.06
2023-04-22T07:26:25.406Z,100563.57
2023-04-22T07:41:29.095Z,100558.18
2023-04-22T07:56:32.031Z,100556.29
2023-04-22T08:11:35.083Z,100557.56
2023-04-22T08:26:52.648Z,100556.33
2023-04-22T08:41:57.774Z,100547.95
2023-04-22T08:57:02.050Z,100535.00
2023-04-22T09:12:19.329Z,100530.89
2023-04-22T09:27:25.423Z,100524.54
2023-04-22T09:42:27.926Z,100514.58
2023-04-22T09:57:30.798Z,100504.06
2023-04-22T10:12:36.209Z,100494.10
2023-04-22T10:27:39.857Z,100484.08
2023-04-22T10:42:49.746Z,100471.40
2023-04-22T10:58:19.705Z,100457.14
2023-04-22T11:13:22.646Z,100448.73
2023-04-22T11:28:26.440Z,100441.40
2023-04-22T11:43:29.205Z,100420.23
2023-04-22T11:58:31.660Z,100403.09
2023-04-22T12:13:42.585Z,100392.85
2023-04-22T12:28:46.304Z,100376.95
2023-04-22T12:43:49.146Z,100368.54
2023-04-22T12:59:06.421Z,100346.35
2023-04-22T13:14:09.324Z,100335.84
2023-04-22T13:29:13.567Z,100309.48
2023-04-22T13:44:16.362Z,100293.59
2023-04-22T13:59:18.995Z,100286.81
2023-04-22T14:14:22.014Z,100271.23
2023-04-22T14:29:24.828Z,100255.39
2023-04-22T14:44:30.294Z,100246.86
2023-04-22T14:59:47.579Z,100238.84
2023-04-22T15:14:50.223Z,100229.20
2023-04-22T15:29:54.503Z,100223.50
2023-04-22T15:45:11.773Z,100212.09
2023-04-22T16:00:28.823Z,100207.81
2023-04-22T16:15:31.365Z,100196.84
2023-04-22T16:30:48.625Z,100184.38
2023-04-22T16:46:05.751Z,100177.77
2023-04-22T17:01:08.233Z,100160.40
2023-04-22T17:16:25.663Z,100153.18
2023-04-22T17:31:28.565Z,100142.92
2023-04-22T17:46:31.181Z,100130.47
2023-04-22T18:01:33.944Z,100127.14
2023-04-22T18:16:36.396Z,100133.81
2023-04-22T18:31:40.335Z,100139.48
2023-04-22T18:46:43.789Z,100148.71
2023-04-22T19:01:46.752Z,100153.03
2023-04-22T19:16:50.012Z,100153.27
2023-04-22T19:31:53.761Z,100154.36
2023-04-22T19:46:56.886Z,100146.04
2023-04-22T20:02:00.014Z,100143.63
2023-04-22T20:17:03.450Z,100134.17
2023-04-22T20:32:09.731Z,100130.55
2023-04-22T20:47:30.448Z,100126.79
2023-04-22T21:02:35.980Z,100120.79
2023-04-22T21:17:52.185Z,100119.48
2023-04-22T21:32:55.118Z,100119.58
2023-04-22T21:59:25.828Z,100119.23
2023-04-22T22:14:31.827Z,100127.19
2023-04-22T22:29:41.278Z,100128.83
2023-04-22T22:44:46.219Z,100113.17
2023-04-22T22:59:50.913Z,100110.09
2023-04-22T23:30:13.815Z,100088.52
